Terminal Aerodrome Forecast
Issued by NWS

Home | Current Version | Previous Version | Text Only | Print | Product List | Glossary On
Versions: 1 2 3 4 5 6 7 8 9 10 11 12 13 14 15 16
000
FTUS41 KLWX 291458 AAA
TAFMTN
TAF AMD
KMTN 291458Z 2915/3012 14003KT P6SM SCT017 BKN024
     FM291600 16005KT P6SM SCT018 SCT050
     FM292100 18008KT P6SM SCT090=

USA.gov is the U.S. government's official web portal to all federal, state and local government web resources and services.